Flight Track Log - Related Links

Times and Time Zones

All times are in EDT time to prevent confusion due to time zone crossing. See the AAY860 flight status page for this flight to view local times or setup timezone preferences in your user account.

Time Position Orientation Groundspeed Altitude Reporting Facility
EDT Latitude Longitude Course Direction KTS MPH feet Rate Location/Type
Sat 06:24:47 AM 27.9333 -82.6833 360° North 156 180 900  Level Tampa TRACON
Sat 06:25:41 AM 27.9667 -82.6833 360° North 187 215 2,600 1,950 Climbing Tampa TRACON
Sat 06:26:47 AM 28.0333 -82.6333 34° Northeast 250 288 4,800 2,213 Climbing Tampa TRACON
Sat 06:28:21 AM 28.1358 -82.6197 North 274 315 8,500 2,139 Climbing Miami Center
Sat 06:33:31 AM 28.6564 -82.6675 356° North 391 450 19,200 1,934 Climbing FlightAware ADS-B
Sat 06:34:24 AM 28.7436 -82.6731 356° North 392 451 20,200 1,368 Climbing Miami Center
Sat 06:35:25 AM 28.8503 -82.7172 340° North 409 471 21,800 1,488 Climbing Miami Center
Sat 06:36:25 AM 28.9544 -82.7719 335° Northwest 412 474 23,200 1,388 Climbing Miami Center
Sat 06:37:26 AM 29.0661 -82.8236 338° Northwest 426 490 24,600 1,328 Climbing Miami Center
Sat 06:38:27 AM 29.1769 -82.8800 336° Northwest 438 504 25,900 694 Climbing Miami Center
Sat 06:39:27 AM 29.2908 -82.9322 338° Northwest 439 505 26,000 50 Climbing Miami Center
Sat 06:40:28 AM 29.4128 -82.9156 North 439 505 26,000 759 Level Miami Center
Sat 06:46:34 AM 30.1958 -82.7677 North 472 543 31,400 916 Climbing FlightAware ADS-B
Sat 06:47:14 AM 30.2860 -82.7506 North 468 539 32,200 1,333 Climbing FlightAware ADS-B
Sat 06:47:55 AM 30.3722 -82.7341 10° North 460 529 33,200 1,185 Climbing FlightAware ADS-B
Sat 06:48:35 AM 30.4564 -82.7178 North 462 532 33,800 814 Climbing FlightAware ADS-B
Sat 06:52:35 AM 30.9522 -82.6221 10° North 447 514 37,000 619 Climbing FlightAware ADS-B
Sat 06:53:45 AM 31.0825 -82.5992 10° North 445 512 37,000  Level Jacksonville Center
Sat 06:54:45 AM 31.2161 -82.5744 North 445 512 37,000  Level Jacksonville Center
Sat 06:55:45 AM 31.3414 -82.5569 North 440 506 37,000  Level Jacksonville Center
Sat 06:57:51 AM 31.5967 -82.6319 346° North 440 506 37,000  Level Atlanta Center
Sat 06:58:51 AM 31.7181 -82.6619 348° North 445 512 37,000  Level Atlanta Center
Sat 06:59:51 AM 31.8394 -82.6942 347° North 450 518 37,000  Level Atlanta Center
Sat 07:00:51 AM 31.9650 -82.7267 348° North 450 518 37,000  Level Atlanta Center
Sat 07:01:51 AM 32.0886 -82.7617 347° North 450 518 37,000  Level Atlanta Center
Sat 07:02:51 AM 32.2119 -82.7942 347° North 450 518 37,000  Level Atlanta Center
Sat 07:03:51 AM 32.3314 -82.8294 346° North 450 518 37,000  Level Atlanta Center
Sat 07:04:51 AM 32.4547 -82.8622 347° North 450 518 37,000  Level Atlanta Center
Sat 07:05:51 AM 32.5761 -82.8950 347° North 450 518 37,000  Level Atlanta Center
Sat 07:06:51 AM 32.6975 -82.9281 347° North 445 512 37,000  Level Atlanta Center
Sat 07:07:51 AM 32.8189 -82.9636 346° North 450 518 37,000  Level Atlanta Center
Sat 07:08:51 AM 32.9403 -82.9992 346° North 450 518 37,000  Level Atlanta Center
Sat 07:09:51 AM 33.0658 -83.0300 348° North 450 518 37,000  Level Atlanta Center
Sat 07:10:51 AM 33.1850 -83.0633 347° North 450 518 37,000  Level Atlanta Center
Sat 07:11:51 AM 33.3083 -83.0967 347° North 445 512 37,000  Level Atlanta Center
Sat 07:12:51 AM 33.4297 -83.1328 346° North 445 512 37,000  Level Atlanta Center
Sat 07:13:51 AM 33.5531 -83.1639 348° North 445 512 37,000  Level Atlanta Center
Sat 07:19:39 AM 34.2973 -83.3743 346° North 443 510 37,000 15 Level FlightAware ADS-B (KDZJ)
Sat 07:20:20 AM 34.3802 -83.3981 346° North 443 510 37,100 72 Climbing FlightAware ADS-B (KDZJ)
Sat 07:21:02 AM 34.4654 -83.4225 347° North 449 517 37,100 -79 Level FlightAware ADS-B (KDZJ)
Sat 07:21:36 AM 34.5336 -83.4421 347° North 450 518 37,000 -75 Descending FlightAware ADS-B (KDZJ)
Sat 07:22:22 AM 34.6279 -83.4691 347° North 450 518 37,000  Level FlightAware ADS-B (KDZJ)
Sat 07:23:17 AM 34.7402 -83.5015 347° North 450 518 37,000  Level FlightAware ADS-B (KDZJ)
Sat 07:24:00 AM 34.8267 -83.5263 346° North 445 512 37,000 -214 Level FlightAware ADS-B (KDZJ)
Sat 07:24:41 AM 34.9102 -83.5506 346° North 446 513 36,700 -684 Descending FlightAware ADS-B (KDZJ)
Sat 07:25:19 AM 34.9880 -83.5732 346° North 447 514 36,100 -519 Descending FlightAware ADS-B (KDZJ)
Sat 07:26:02 AM 35.0787 -83.5995 347° North 462 532 36,000 -72 Descending FlightAware ADS-B (KDZJ)
Sat 07:26:42 AM 35.1611 -83.6235 347° North 459 528 36,000  Level FlightAware ADS-B (KDZJ)
Sat 07:27:22 AM 35.2433 -83.6474 346° North 447 514 36,000  Level FlightAware ADS-B (KDZJ)
Sat 07:28:02 AM 35.3250 -83.6714 346° North 448 516 36,000  Level FlightAware ADS-B (KDZJ)
Sat 07:28:41 AM 35.4058 -83.6950 346° North 451 519 36,000  Level FlightAware ADS-B (KDZJ)
Sat 07:29:18 AM 35.4826 -83.7176 346° North 450 518 36,000  Level FlightAware ADS-B (KDZJ)
Sat 07:29:51 AM 35.4947 -83.7200 346° North 450 518 36,000  Level Atlanta Center
Sat 07:30:51 AM 35.6158 -83.7603 345° North 450 518 36,000  Level Atlanta Center
Sat 07:31:51 AM 35.7389 -83.7958 347° North 450 518 36,000 -300 Level Atlanta Center
Sat 07:32:51 AM 35.8619 -83.8311 347° North 450 518 35,400 -800 Descending Atlanta Center
Sat 07:33:51 AM 35.9831 -83.8667 347° North 450 518 34,400 -1,000 Descending Atlanta Center
Sat 07:34:51 AM 36.1061 -83.9050 346° North 450 518 33,400 -934 Descending Atlanta Center
Sat 07:35:53 AM 36.2278 -83.9389 347° North 457 526 32,500 -1,220 Descending Indianapolis Center
Sat 07:36:54 AM 36.3758 -83.9822 347° North 457 526 30,900 -1,820 Descending Indianapolis Center
Sat 07:37:55 AM 36.4969 -84.0192 346° North 455 524 28,800 -2,016 Descending Indianapolis Center
Sat 07:38:56 AM 36.6092 -84.0544 346° North 447 514 26,800 -1,672 Descending Indianapolis Center
Sat 07:39:57 AM 36.7219 -84.0881 347° North 427 491 25,400 -1,574 Descending Indianapolis Center
Sat 07:40:58 AM 36.8311 -84.1203 347° North 411 473 23,600 -2,164 Descending Indianapolis Center
Sat 07:41:59 AM 36.9403 -84.1544 346° North 406 467 21,000 -2,508 Descending Indianapolis Center
Sat 07:43:00 AM 37.0494 -84.1883 346° North 406 467 18,500 -2,213 Descending Indianapolis Center
Sat 07:44:01 AM 37.1586 -84.2206 347° North 404 465 16,500 -2,115 Descending Indianapolis Center
Sat 07:45:02 AM 37.2631 -84.2533 346° North 392 451 14,200 -2,262 Descending Indianapolis Center
Sat 07:46:03 AM 37.3828 -84.2897 346° North 381 438 11,900 -1,820 Descending Indianapolis Center
Sat 07:47:04 AM 37.4808 -84.3031 354° North 362 417 10,500 -934 Descending Indianapolis Center
Sat 07:48:05 AM 37.5781 -84.3122 356° North 352 405 10,000 -246 Descending Indianapolis Center
Sat 07:49:06 AM 37.6742 -84.3214 356° North 349 402 10,000 -738 Level Indianapolis Center
Sat 07:50:07 AM 37.7561 -84.3306 355° North 307 353 8,500 -1,820 Descending Indianapolis Center
Sat 07:51:08 AM 37.8369 -84.3383 356° North 294 338 6,300 -1,820 Descending Indianapolis Center
Sat 07:52:09 AM 37.9178 -84.3450 356° North 292 336 4,800 -1,131 Descending Indianapolis Center
Sat 07:53:10 AM 37.9953 -84.3511 356° North 287 330 4,000 -393 Descending Indianapolis Center
Sat 07:54:11 AM 38.0711 -84.3572 356° North 269 310 4,000 -344 Level Indianapolis Center
Sat 07:55:12 AM 38.0969 -84.4136 300° West 238 274 3,300 -390 Descending Indianapolis Center
Sat 07:56:14 AM 38.1136 -84.4806 288° West 208 239 3,200 -195 Descending Indianapolis Center
Sat 07:57:15 AM 38.0986 -84.5339 250° West 180 207 2,900 -639 Descending Indianapolis Center
Sat 07:58:16 AM 38.0672 -84.5694 222° Southwest 164 189 1,900 -984 Descending Indianapolis Center
Sat 08:00:00 AM 38.0333 -84.6000 302° West  Level FlightAware Approximate

Login

Don't have an account? Register now (free) for customized features, flight alerts, and more!